LFBH

La Rochelle-Île de Ré Airport

La Rochelle/Île de Ré, France
TAF LFBH 181700Z 1818/1918 33015KT CAVOK BECMG 1822/1824 35005KT PROB40 TEMPO 1910/1918 34015KT 4000 -SHRA SCT090CB
Issued Valid From Valid To
Jul-18 @ 17:00 UTC
(5 hours ago)
Jul-18 @ 18:00 UTC
(4 hours ago)
Jul-19 @ 18:00 UTC
(in 20 hours)
Expired Click to View Jul-18 @ 18:00 to Jul-18 @ 22:00
TAF LFBH 181700Z 1818/1918 33015KT CAVOK
Wind Visibility Clouds Conditions
330° at 15 knots 10,000+ meters
  • No significant clouds
Becoming Jul-18 @ 22:00 to Jul-19 @ 18:00
BECMG 1822/1824 35005KT
Wind Visibility Clouds Conditions
350° at 5 knots 10,000+ meters
  • No significant clouds
Temporary  (Probability 40%) Jul-19 @ 10:00 to Jul-19 @ 18:00
PROB40 TEMPO 1910/1918 34015KT 4000 -SHRA SCT090CB
Wind Visibility Clouds Conditions
340° at 15 knots 4,007 meters
  • Scattered at 9,000' AGL
  • Light Rain
TAF LFBH 181700Z 1818/1918 33015KT CAVOK BECMG 1822/1824 35005KT PROB40 TEMPO 1910/1918 34015KT 4000 -SHRA SCT090CB
Issued Jul-18 @ 17:00 UTC
(5 hours ago)
Valid From Jul-18 @ 18:00 UTC
(4 hours ago)
Valid To Jul-19 @ 18:00 UTC
(in 20 hours)
Jul-18 @ 18:00 - Jul-18 @ 22:00
Wind Visibility
330° at 15 knots 10,000+ meters
Clouds
  • No significant clouds
Conditions
Becoming Jul-18 @ 22:00 - Jul-19 @ 18:00
Wind Visibility
350° at 5 knots 10,000+ meters
Clouds
  • No significant clouds
Conditions
Probability 40% Temporary Jul-19 @ 10:00 - Jul-19 @ 18:00
Wind Visibility
340° at 15 knots 4,007 meters
Clouds
  • Scattered at 9,000' AGL
Conditions
  • Light Rain